Terminal Aerodrome Forecast
Issued by NWS

Home | Current Version | Previous Version | Text Only | Print | Product List | Glossary On
Versions: 1 2 3 4 5 6 7 8 9 10 11 12 13 14 15 16 17 18 19 20 21 22
000
FTUS46 KLOX 051700
TAFLGB
TAF
KLGB 051736Z 0518/0618 08005KT P6SM OVC035
     FM051900 19007KT P6SM OVC035
     FM052200 19007KT P6SM SCT035
     FM060100 VRB04KT P6SM BKN020
     FM060900 16004KT P6SM OVC030=

USA.gov is the U.S. government's official web portal to all federal, state and local government web resources and services.